.
WxDataArchive / Data Records for 2012-12-03
2012-12-02 December 2012 2012-12-04

Data Records for Monday, 03 December 2012

Time	Temp	Chill	HIndex	Humid	Dewpt	 Wind 	HiWind	WindDir	Rain 	Barom 
-----	----	-----	------	-----	-----	------	------	-------	-----	----- 
00:00	54.5	54.5	54.5	95	53.1	0	0	---	0.00	30.088 
00:05	54.5	54.5	54.5	95	53.1	0	0	---	0.00	30.088 
00:10	54.5	54.5	54.5	95	53.1	0	0	---	0.00	30.088 
00:15	54.5	54.5	54.5	95	53.1	0	0	---	0.00	30.084 
00:20	54.7	54.7	54.7	95	53.3	0	1	270	0.00	30.084 
00:25	54.8	54.8	54.8	95	53.4	0	0	---	0.00	30.084 
00:30	55.0	55.0	55.0	95	53.6	0	1	270	0.00	30.083 
00:35	55.0	55.0	55.0	95	53.6	0	1	270	0.00	30.083 
00:40	55.0	55.0	55.0	95	53.6	0	1	270	0.00	30.083 
00:45	55.1	55.1	55.1	95	53.7	0	1	270	0.00	30.079 
00:50	55.3	55.3	55.3	95	53.9	0	1	270	0.00	30.079 
00:55	55.4	55.4	55.4	95	54.0	0	1	270	0.00	30.079 
01:00	55.4	55.4	55.4	95	54.0	0	0	---	0.00	30.081 
01:05	55.4	55.4	55.4	95	54.0	0	1	270	0.00	30.081 
01:10	55.4	55.4	55.4	95	54.0	0	0	---	0.00	30.081 
01:15	55.6	55.6	55.6	95	54.2	0	1	270	0.00	30.081 
01:20	55.6	55.6	55.6	96	54.5	0	1	270	0.00	30.081 
01:25	55.7	55.7	55.7	96	54.6	0	3	270	0.00	30.081 
01:30	55.9	55.9	55.9	96	54.8	0	1	270	0.00	30.073 
01:35	55.9	55.9	55.9	96	54.8	0	1	270	0.00	30.073 
01:40	56.0	56.0	56.0	96	54.9	0	1	270	0.00	30.073 
01:45	55.9	55.9	55.9	96	54.8	0	0	---	0.00	30.072 
01:50	55.9	55.9	55.9	96	54.8	0	0	---	0.00	30.072 
01:55	55.9	55.9	55.9	96	54.8	0	0	---	0.00	30.072 
02:00	55.9	55.9	55.9	96	54.8	0	0	---	0.00	30.071 
02:05	55.9	55.9	55.9	96	54.8	0	1	270	0.00	30.071 
02:10	55.9	55.9	55.9	96	54.8	0	1	270	0.00	30.071 
02:15	55.9	55.9	55.9	96	54.8	0	1	270	0.00	30.070 
02:20	55.9	55.9	55.9	96	54.8	0	1	270	0.00	30.070 
02:25	55.7	55.7	55.7	96	54.6	0	0	---	0.00	30.070 
02:30	55.7	55.7	55.7	96	54.6	0	1	270	0.00	30.071 
02:35	55.7	55.7	55.7	96	54.6	0	1	270	0.00	30.071 
02:40	55.6	55.6	55.6	96	54.5	0	2	270	0.00	30.071 
02:45	55.6	55.6	55.6	96	54.5	0	1	270	0.00	30.071 
02:50	55.6	55.6	55.6	96	54.5	0	1	270	0.00	30.071 
02:55	55.6	55.6	55.6	96	54.5	0	1	270	0.00	30.071 
03:00	55.4	55.4	55.4	96	54.3	0	1	270	0.00	30.076 
03:05	55.4	55.4	55.4	96	54.3	0	1	270	0.00	30.076 
03:10	55.4	55.4	55.4	96	54.3	0	1	270	0.00	30.076 
03:15	55.4	55.4	55.4	96	54.3	0	0	---	0.00	30.082 
03:20	55.3	55.3	55.3	96	54.2	0	0	---	0.00	30.082 
03:25	55.3	55.3	55.3	96	54.2	0	1	270	0.00	30.082 
03:30	55.3	55.3	55.3	96	54.2	0	1	270	0.00	30.085 
03:35	55.3	55.3	55.3	96	54.2	0	1	270	0.00	30.085 
03:40	55.3	55.3	55.3	96	54.2	0	0	---	0.00	30.085 
03:45	55.3	55.3	55.3	96	54.2	0	1	270	0.00	30.086 
03:50	55.3	55.3	55.3	96	54.2	0	1	270	0.00	30.086 
03:55	55.3	55.3	55.3	96	54.2	0	0	---	0.00	30.086 
04:00	55.4	55.4	55.4	96	54.3	0	0	---	0.00	30.086 
04:05	55.4	55.4	55.4	96	54.3	0	0	---	0.00	30.086 
04:10	55.4	55.4	55.4	96	54.3	0	1	270	0.00	30.086 
04:15	55.4	55.4	55.4	96	54.3	0	0	---	0.00	30.087 
04:20	55.4	55.4	55.4	96	54.3	0	0	---	0.00	30.087 
04:25	55.6	55.6	55.6	96	54.5	0	0	---	0.00	30.087 
04:30	55.6	55.6	55.6	96	54.5	0	0	---	0.00	30.077 
04:35	55.6	55.6	55.6	96	54.5	0	0	---	0.00	30.077 
04:40	55.6	55.6	55.6	96	54.5	0	0	---	0.00	30.077 
04:45	55.6	55.6	55.6	96	54.5	0	0	---	0.00	30.072 
04:50	55.6	55.6	55.6	96	54.5	0	0	---	0.00	30.072 
04:55	55.6	55.6	55.6	96	54.5	0	0	---	0.00	30.072 
05:00	55.4	55.4	55.4	96	54.3	0	0	---	0.00	30.073 
05:05	55.4	55.4	55.4	96	54.3	0	0	---	0.00	30.073 
05:10	55.3	55.3	55.3	96	54.2	0	0	---	0.00	30.073 
05:15	55.1	55.1	55.1	96	54.0	0	0	---	0.00	30.074 
05:20	55.1	55.1	55.1	96	54.0	0	1	270	0.00	30.074 
05:25	55.3	55.3	55.3	96	54.2	0	1	270	0.00	30.074 
05:30	55.4	55.4	55.4	96	54.3	0	3	270	0.00	30.073 
05:35	55.4	55.4	55.4	96	54.3	0	1	270	0.00	30.073 
05:40	55.4	55.4	55.4	96	54.3	0	1	270	0.00	30.073 
05:45	55.4	55.4	55.4	96	54.3	0	0	---	0.00	30.075 
05:50	55.3	55.3	55.3	96	54.2	0	0	---	0.00	30.075 
05:55	55.3	55.3	55.3	96	54.2	0	0	---	0.00	30.075 
06:00	55.3	55.3	55.3	96	54.2	0	0	---	0.00	30.076 
06:05	55.3	55.3	55.3	96	54.2	0	1	270	0.00	30.076 
06:10	55.1	55.1	55.1	96	54.0	0	1	270	0.00	30.076 
06:15	55.1	55.1	55.1	96	54.0	0	0	---	0.00	30.078 
06:20	55.1	55.1	55.1	96	54.0	0	1	270	0.00	30.078 
06:25	55.1	55.1	55.1	96	54.0	0	1	270	0.00	30.078 
06:30	55.0	55.0	55.0	96	53.9	0	1	270	0.00	30.072 
06:35	55.0	55.0	55.0	96	53.9	0	2	270	0.00	30.072 
06:40	55.0	55.0	55.0	96	53.9	0	1	270	0.00	30.072 
06:45	55.0	55.0	55.0	96	53.9	0	1	270	0.00	30.072 
06:50	55.0	55.0	55.0	96	53.9	0	2	270	0.00	30.072 
06:55	55.0	55.0	55.0	96	53.9	0	1	270	0.00	30.072 
07:00	54.8	54.8	54.8	96	53.7	0	2	270	0.00	30.076 
07:05	54.8	54.8	54.8	96	53.7	0	1	270	0.00	30.076 
07:10	54.8	54.8	54.8	96	53.7	0	1	270	0.00	30.076 
07:15	54.8	54.8	54.8	96	53.7	0	2	270	0.00	30.087 
07:20	54.7	54.7	54.7	96	53.6	0	1	270	0.00	30.087 
07:25	54.7	54.7	54.7	96	53.6	0	1	270	0.00	30.087 
07:30	54.7	54.7	54.7	96	53.6	0	1	270	0.00	30.082 
07:35	54.7	54.7	54.7	96	53.6	0	3	270	0.00	30.082 
07:40	54.7	54.7	54.7	96	53.6	0	1	270	0.00	30.082 
07:45	54.7	54.7	54.7	96	53.6	1	2	270	0.00	30.076 
07:50	54.7	54.7	54.7	96	53.6	1	3	270	0.00	30.076 
07:55	54.7	54.7	54.7	96	53.6	1	3	270	0.00	30.076 
08:00	54.7	54.7	54.7	96	53.6	1	4	270	0.00	30.072 
08:05	54.7	54.7	54.7	96	53.6	0	2	112	0.00	30.072 
08:10	54.7	54.7	54.7	97	53.9	0	1	112	0.00	30.072 
08:15	54.5	54.5	54.5	97	53.7	0	2	112	0.00	30.072 
08:20	54.5	54.5	54.5	96	53.4	0	3	112	0.00	30.072 
08:25	54.7	54.7	54.7	97	53.9	0	2	112	0.00	30.072 
08:30	54.7	54.7	54.7	97	53.9	0	1	112	0.00	30.067 
08:35	54.8	54.8	54.8	97	54.0	0	1	112	0.00	30.067 
08:40	54.8	54.8	54.8	97	54.0	1	4	112	0.00	30.067 
08:45	55.0	55.0	55.0	97	54.2	0	2	112	0.00	30.068 
08:50	55.1	55.1	55.1	97	54.3	0	2	112	0.00	30.068 
08:55	55.3	55.3	55.3	97	54.5	0	2	112	0.00	30.068 
09:00	55.4	55.4	55.4	97	54.6	0	2	112	0.00	30.070 
09:05	55.6	55.6	55.6	97	54.8	0	2	112	0.00	30.070 
09:10	55.6	55.6	55.6	97	54.8	0	2	112	0.00	30.070 
09:15	55.7	55.7	55.7	97	54.9	0	1	112	0.00	30.064 
09:20	55.7	55.7	55.7	97	54.9	0	2	112	0.00	30.064 
09:25	55.9	55.9	55.9	97	55.1	0	1	112	0.00	30.064 
09:30	55.9	55.9	55.9	97	55.1	0	2	112	0.00	30.066 
09:35	56.0	56.0	56.0	97	55.2	0	1	112	0.00	30.066 
09:40	56.2	56.2	56.2	97	55.4	0	2	112	0.00	30.066 
09:45	56.2	56.2	56.2	97	55.4	0	1	112	0.00	30.060 
09:50	56.5	56.5	56.5	97	55.7	0	2	112	0.00	30.060 
09:55	56.6	56.6	56.6	97	55.8	1	3	112	0.00	30.060 
10:00	56.7	56.7	56.7	97	55.9	0	2	112	0.00	30.058 
10:05	56.7	56.7	56.7	97	55.9	1	2	112	0.00	30.058 
10:10	56.9	56.9	56.9	97	56.1	0	1	112	0.00	30.058 
10:15	57.0	57.0	57.0	97	56.2	0	2	112	0.00	30.056 
10:20	57.0	57.0	57.0	97	56.2	0	1	112	0.00	30.056 
10:25	57.2	57.2	57.2	97	56.4	0	2	112	0.00	30.056 
10:30	57.3	57.3	57.3	97	56.5	0	3	112	0.00	30.055 
10:35	57.5	57.5	57.5	97	56.7	0	4	112	0.00	30.055 
10:40	57.6	57.6	57.6	97	56.8	1	3	135	0.00	30.055 
10:45	58.0	58.0	58.0	97	57.2	1	4	90	0.00	30.048 
10:50	58.1	58.1	58.1	97	57.3	1	4	90	0.00	30.048 
10:55	58.3	58.3	58.3	97	57.5	1	5	90	0.00	30.048 
11:00	58.6	58.6	58.6	97	57.7	2	6	90	0.00	30.045 
11:05	58.7	58.7	58.7	97	57.8	2	4	90	0.00	30.045 
11:10	58.7	58.7	58.7	97	57.8	1	4	90	0.02	30.045 
11:15	58.9	58.9	58.9	97	58.0	0	2	90	0.00	30.039 
11:20	58.9	58.9	58.9	97	58.0	1	3	90	0.00	30.039 
11:25	58.9	58.9	58.9	97	58.0	1	2	90	0.00	30.039 
11:30	59.0	59.0	59.0	97	58.1	1	3	90	0.00	30.035 
11:35	59.2	59.2	59.2	97	58.3	1	5	90	0.00	30.035 
11:40	59.2	59.2	59.2	97	58.3	1	4	90	0.00	30.035 
11:45	59.3	59.3	59.3	97	58.4	1	3	90	0.00	30.026 
11:50	59.5	59.5	59.5	97	58.6	1	3	90	0.00	30.026 
11:55	59.6	59.6	59.6	97	58.7	1	4	90	0.00	30.026 
12:00	59.8	59.8	59.8	97	58.9	1	3	90	0.00	30.020 
12:05	59.9	59.9	59.9	97	59.0	1	4	90	0.00	30.020 
12:10	59.9	59.9	59.9	97	59.0	1	3	90	0.00	30.020 
12:15	60.1	60.1	60.1	97	59.2	1	4	90	0.00	30.009 
12:20	60.2	60.2	60.2	97	59.3	2	7	90	0.00	30.009 
12:25	60.2	60.2	60.2	97	59.3	1	4	158	0.00	30.009 
12:30	60.2	60.2	60.2	97	59.3	1	3	68	0.00	30.004 
12:35	60.4	60.4	60.4	97	59.5	1	4	90	0.00	30.004 
12:40	60.4	60.4	60.4	97	59.5	1	5	90	0.00	30.004 
12:45	60.4	60.4	60.4	97	59.5	0	2	90	0.00	29.999 
12:50	60.5	60.5	60.5	97	59.6	1	3	90	0.00	29.999 
12:55	60.5	60.5	60.5	97	59.6	1	3	112	0.00	29.999 
13:00	60.5	60.5	60.5	97	59.6	1	2	112	0.00	29.992 
13:05	60.7	60.7	60.7	97	59.8	1	3	135	0.00	29.992 
13:10	60.7	60.7	60.7	97	59.8	1	3	68	0.00	29.992 
13:15	60.7	60.7	60.7	97	59.8	1	4	68	0.00	29.989 
13:20	60.9	60.9	60.9	97	60.0	1	4	68	0.00	29.989 
13:25	61.0	61.0	61.0	97	60.1	1	4	90	0.00	29.989 
13:30	61.0	61.0	61.0	97	60.1	1	4	45	0.00	29.983 
13:35	61.2	61.2	61.2	97	60.3	1	5	45	0.00	29.983 
13:40	61.2	61.2	61.2	97	60.3	1	3	22	0.00	29.983 
13:45	61.2	61.2	61.2	97	60.3	1	4	248	0.00	29.976 
13:50	61.3	61.3	61.3	97	60.4	1	3	225	0.00	29.976 
13:55	61.2	61.2	61.2	97	60.3	1	6	90	0.00	29.976 
14:00	61.3	61.3	61.3	96	60.1	1	4	90	0.00	29.973 
14:05	61.5	61.5	61.5	96	60.3	2	4	45	0.00	29.973 
14:10	61.5	61.5	61.5	96	60.3	1	2	68	0.00	29.973 
14:15	61.5	61.5	61.5	96	60.3	1	5	90	0.00	29.968 
14:20	61.5	61.5	61.5	96	60.3	1	4	45	0.00	29.968 
14:25	61.5	61.5	61.5	96	60.3	1	4	90	0.00	29.968 
14:30	61.5	61.5	61.5	96	60.3	1	5	90	0.00	29.968 
14:35	61.6	61.6	61.6	95	60.2	1	4	68	0.00	29.968 
14:40	61.6	61.6	61.6	95	60.2	1	4	68	0.00	29.968 
14:45	61.6	61.6	61.6	94	59.9	1	4	45	0.00	29.965 
14:50	61.6	61.6	61.6	93	59.6	1	3	68	0.00	29.965 
14:55	61.8	61.8	61.8	92	59.4	1	3	90	0.00	29.965 
15:00	61.8	61.8	61.8	92	59.4	1	4	90	0.00	29.960 
15:05	61.8	61.8	61.8	92	59.4	1	5	90	0.00	29.960 
15:10	61.8	61.8	61.8	91	59.1	1	4	90	0.00	29.960 
15:15	62.0	62.0	62.0	91	59.3	1	5	90	0.00	29.959 
15:20	62.0	62.0	62.0	90	59.0	1	3	90	0.00	29.959 
15:25	62.0	62.0	62.0	90	59.0	0	2	90	0.00	29.959 
15:30	62.1	62.1	62.1	89	58.8	1	6	90	0.00	29.960 
15:35	62.1	62.1	62.1	89	58.8	1	3	90	0.00	29.960 
15:40	62.3	62.3	62.3	89	59.0	1	4	90	0.00	29.960 
15:45	62.4	62.4	62.4	88	58.8	2	5	22	0.00	29.961 
15:50	62.4	62.4	62.4	88	58.8	2	4	112	0.00	29.961 
15:55	62.6	62.6	62.6	88	59.0	2	5	112	0.00	29.961 
16:00	62.7	62.7	62.7	87	58.8	2	4	68	0.00	29.959 
16:05	62.9	62.9	62.9	87	59.0	2	5	90	0.00	29.959 
16:10	63.1	63.1	63.1	87	59.2	2	5	112	0.00	29.959 
16:15	63.1	63.1	63.1	86	58.8	1	4	112	0.00	29.959 
16:20	63.1	63.1	63.1	86	58.8	2	4	112	0.00	29.959 
16:25	63.1	63.1	63.1	86	58.8	1	4	90	0.00	29.959 
16:30	63.1	63.1	63.1	86	58.8	2	5	90	0.00	29.958 
16:35	63.1	63.1	63.1	86	58.8	2	6	90	0.00	29.958 
16:40	63.1	63.1	63.1	86	58.8	1	5	90	0.00	29.958 
16:45	63.2	63.2	63.2	86	58.9	2	5	112	0.00	29.957 
16:50	63.2	63.2	63.2	86	58.9	1	3	90	0.00	29.957 
16:55	63.2	63.2	63.2	86	58.9	1	3	90	0.00	29.957 
17:00	63.2	63.2	63.2	86	58.9	1	3	90	0.00	29.954 
17:05	63.1	63.1	63.1	86	58.8	1	4	90	0.00	29.954 
17:10	63.1	63.1	63.1	86	58.8	1	3	90	0.00	29.954 
17:15	62.9	62.9	62.9	86	58.6	1	3	112	0.00	29.955 
17:20	62.9	62.9	62.9	87	59.0	1	3	112	0.00	29.955 
17:25	62.7	62.7	62.7	87	58.8	1	3	112	0.00	29.955 
17:30	62.6	62.6	62.6	87	58.7	0	2	180	0.00	29.949 
17:35	62.4	62.4	62.4	87	58.5	0	2	158	0.00	29.949 
17:40	62.4	62.4	62.4	87	58.5	1	4	90	0.00	29.949 
17:45	62.4	62.4	62.4	87	58.5	1	4	90	0.00	29.952 
17:50	62.6	62.6	62.6	87	58.7	1	5	90	0.00	29.952 
17:55	62.7	62.7	62.7	86	58.4	1	4	90	0.00	29.952 
18:00	62.7	62.7	62.7	86	58.4	2	4	90	0.00	29.946 
18:05	62.7	62.7	62.7	86	58.4	2	4	90	0.00	29.946 
18:10	62.7	62.7	62.7	86	58.4	2	5	68	0.00	29.946 
18:15	62.7	62.7	62.7	86	58.4	2	6	135	0.00	29.945 
18:20	62.7	62.7	62.7	86	58.4	1	5	90	0.00	29.945 
18:25	62.6	62.6	62.6	86	58.3	2	5	90	0.00	29.945 
18:30	62.6	62.6	62.6	86	58.3	2	5	90	0.00	29.944 
18:35	62.6	62.6	62.6	86	58.3	2	4	90	0.00	29.944 
18:40	62.6	62.6	62.6	85	58.0	2	5	90	0.00	29.944 
18:45	62.6	62.6	62.6	85	58.0	2	6	112	0.00	29.943 
18:50	62.6	62.6	62.6	85	58.0	2	6	112	0.00	29.943 
18:55	62.6	62.6	62.6	84	57.7	1	5	112	0.00	29.943 
19:00	62.6	62.6	62.6	84	57.7	2	7	112	0.00	29.944 
19:05	62.7	62.7	62.7	84	57.8	2	5	90	0.00	29.944 
19:10	62.6	62.6	62.6	84	57.7	2	7	68	0.00	29.944 
19:15	62.6	62.6	62.6	84	57.7	2	5	68	0.00	29.943 
19:20	62.6	62.6	62.6	83	57.4	2	6	90	0.00	29.943 
19:25	62.6	62.6	62.6	83	57.4	2	4	90	0.00	29.943 
19:30	62.4	62.4	62.4	83	57.2	1	6	90	0.00	29.944 
19:35	62.3	62.3	62.3	83	57.1	1	3	68	0.00	29.944 
19:40	62.3	62.3	62.3	83	57.1	0	3	112	0.00	29.944 
19:45	62.3	62.3	62.3	82	56.7	1	11	45	0.00	29.947 
19:50	62.1	62.1	62.1	82	56.5	1	10	90	0.00	29.947 
19:55	62.3	62.3	62.3	82	56.7	2	8	68	0.00	29.947 
20:00	62.1	62.1	62.1	81	56.2	1	5	22	0.00	29.947 
20:05	62.1	62.1	62.1	81	56.2	1	4	90	0.00	29.947 
20:10	62.1	62.1	62.1	81	56.2	2	6	338	0.00	29.947 
20:15	62.1	62.1	62.1	81	56.2	2	4	112	0.00	29.943 
20:20	62.1	62.1	62.1	80	55.9	2	11	90	0.00	29.943 
20:25	62.3	62.3	62.3	80	56.0	2	6	90	0.00	29.943 
20:30	62.1	62.1	62.1	80	55.9	1	4	90	0.00	29.948 
20:35	62.1	62.1	62.1	80	55.9	1	5	0	0.00	29.948 
20:40	62.0	62.0	62.0	80	55.8	1	2	22	0.00	29.948 
20:45	62.0	62.0	62.0	80	55.8	1	4	248	0.00	29.954 
20:50	62.0	62.0	62.0	80	55.8	1	3	315	0.00	29.954 
20:55	62.0	62.0	62.0	80	55.8	1	3	315	0.00	29.954 
21:00	62.0	62.0	62.0	80	55.8	1	8	68	0.00	29.950 
21:05	62.0	62.0	62.0	80	55.8	1	5	248	0.00	29.950 
21:10	62.0	62.0	62.0	79	55.4	1	5	292	0.00	29.950 
21:15	62.1	62.1	62.1	79	55.5	1	6	248	0.00	29.943 
21:20	62.1	62.1	62.1	78	55.2	1	5	292	0.00	29.943 
21:25	62.1	62.1	62.1	78	55.2	1	5	292	0.00	29.943 
21:30	62.3	62.3	62.3	78	55.3	1	4	270	0.00	29.942 
21:35	62.3	62.3	62.3	77	55.0	1	4	45	0.00	29.942 
21:40	62.3	62.3	62.3	77	55.0	1	11	248	0.01	29.942 
21:45	62.3	62.3	62.3	77	55.0	1	4	248	0.00	29.943 
21:50	62.4	62.4	62.4	77	55.1	1	5	248	0.00	29.943 
21:55	62.4	62.4	62.4	77	55.1	1	4	248	0.00	29.943 
22:00	62.4	62.4	62.4	77	55.1	1	5	248	0.00	29.952 
22:05	62.4	62.4	62.4	77	55.1	1	4	248	0.00	29.952 
22:10	62.4	62.4	62.4	77	55.1	1	5	248	0.00	29.952 
22:15	62.6	62.6	62.6	77	55.3	1	6	248	0.00	29.945 
22:20	62.6	62.6	62.6	77	55.3	1	5	248	0.00	29.945 
22:25	62.4	62.4	62.4	77	55.1	1	5	248	0.00	29.945 
22:30	62.4	62.4	62.4	80	56.1	2	7	248	0.00	29.946 
22:35	62.4	62.4	62.4	77	55.1	2	9	248	0.00	29.946 
22:40	62.3	62.3	62.3	77	55.0	1	5	248	0.00	29.946 
22:45	62.1	62.1	62.1	77	54.8	1	6	248	0.00	29.942 
22:50	62.0	62.0	62.0	78	55.1	1	5	270	0.00	29.942 
22:55	62.0	62.0	62.0	78	55.1	1	5	248	0.00	29.942 
23:00	62.0	62.0	62.0	78	55.1	1	7	248	0.00	29.944 
23:05	61.8	61.8	61.8	78	54.9	1	7	248	0.00	29.944 
23:10	61.8	61.8	61.8	78	54.9	1	3	248	0.00	29.944 
23:15	61.6	61.6	61.6	78	54.7	1	4	248	0.00	29.942 
23:20	61.6	61.6	61.6	79	55.0	2	11	248	0.00	29.942 
23:25	61.5	61.5	61.5	79	54.9	1	4	248	0.00	29.942 
23:30	61.3	61.3	61.3	79	54.7	1	6	270	0.00	29.945 
23:35	61.3	61.3	61.3	79	54.7	1	4	248	0.00	29.945 
23:40	61.3	61.3	61.3	79	54.7	2	9	248	0.00	29.945 
23:45	61.3	61.3	61.3	79	54.7	1	6	248	0.00	29.955 
23:50	61.3	61.3	61.3	79	54.7	1	4	248	0.00	29.955 
23:55	61.3	61.3	61.3	79	54.7	2	5	248	0.00	29.955 

CoCoRaHS
IN-AL-39
A2 Web Hosting
Creative Commons License
GoDaddy
search engine by freefind advanced

loaded 2018-11-13 01:34:00 • last modified 2010-11-18 10:43:29
Privacy PolicyDisclaimer
• wx.awcolley.com is powered by PmWiki v.2002016 •
• all content (unless otherwise noted) © 2018 A W Colley